sensor_id;sensor_type;location;lat;lon;timestamp;P1;durP1;ratioP1;P2;durP2;ratioP2
12867;SDS011;33517;49.866;8.320;2023-02-11T00:01:57;3.75;;;1.77;;
12867;SDS011;33517;49.866;8.320;2023-02-11T00:04:50;2.45;;;1.85;;
12867;SDS011;33517;49.866;8.320;2023-02-11T00:07:42;4.00;;;1.75;;
12867;SDS011;33517;49.866;8.320;2023-02-11T00:10:35;1.55;;;1.45;;
12867;SDS011;33517;49.866;8.320;2023-02-11T00:13:27;2.80;;;2.38;;
12867;SDS011;33517;49.866;8.320;2023-02-11T00:16:19;5.40;;;3.33;;
12867;SDS011;33517;49.866;8.320;2023-02-11T00:19:11;2.72;;;2.42;;
12867;SDS011;33517;49.866;8.320;2023-02-11T00:22:03;8.35;;;3.35;;
12867;SDS011;33517;49.866;8.320;2023-02-11T00:24:54;5.40;;;3.55;;
12867;SDS011;33517;49.866;8.320;2023-02-11T00:27:48;4.00;;;2.95;;
12867;SDS011;33517;49.866;8.320;2023-02-11T00:30:40;3.88;;;2.58;;
12867;SDS011;33517;49.866;8.320;2023-02-11T00:33:31;3.17;;;2.88;;
12867;SDS011;33517;49.866;8.320;2023-02-11T00:36:24;2.80;;;2.60;;
12867;SDS011;33517;49.866;8.320;2023-02-11T00:39:17;8.52;;;3.08;;
12867;SDS011;33517;49.866;8.320;2023-02-11T00:42:10;1.20;;;1.17;;
12867;SDS011;33517;49.866;8.320;2023-02-11T00:45:07;5.57;;;2.88;;
12867;SDS011;33517;49.866;8.320;2023-02-11T00:47:59;3.25;;;2.95;;
12867;SDS011;33517;49.866;8.320;2023-02-11T00:50:51;3.95;;;1.98;;
12867;SDS011;33517;49.866;8.320;2023-02-11T00:53:42;3.85;;;2.22;;
12867;SDS011;33517;49.866;8.320;2023-02-11T00:56:34;3.65;;;2.33;;
12867;SDS011;33517;49.866;8.320;2023-02-11T00:59:26;1.92;;;1.67;;
12867;SDS011;33517;49.866;8.320;2023-02-11T01:02:19;3.45;;;2.85;;
12867;SDS011;33517;49.866;8.320;2023-02-11T01:05:11;3.70;;;3.13;;
12867;SDS011;33517;49.866;8.320;2023-02-11T01:08:03;1.73;;;1.63;;
12867;SDS011;33517;49.866;8.320;2023-02-11T01:10:57;2.25;;;2.05;;
12867;SDS011;33517;49.866;8.320;2023-02-11T01:13:50;4.97;;;3.47;;
12867;SDS011;33517;49.866;8.320;2023-02-11T01:16:41;2.05;;;1.48;;
12867;SDS011;33517;49.866;8.320;2023-02-11T01:19:36;2.00;;;1.85;;
12867;SDS011;33517;49.866;8.320;2023-02-11T01:22:28;2.65;;;2.45;;
12867;SDS011;33517;49.866;8.320;2023-02-11T01:25:20;1.45;;;1.35;;
12867;SDS011;33517;49.866;8.320;2023-02-11T01:28:14;3.45;;;1.95;;
12867;SDS011;33517;49.866;8.320;2023-02-11T01:31:07;3.92;;;3.33;;
12867;SDS011;33517;49.866;8.320;2023-02-11T01:33:59;3.50;;;3.20;;
12867;SDS011;33517;49.866;8.320;2023-02-11T01:36:56;1.92;;;1.33;;
12867;SDS011;33517;49.866;8.320;2023-02-11T01:39:49;3.42;;;2.92;;
12867;SDS011;33517;49.866;8.320;2023-02-11T01:42:41;2.10;;;1.95;;
12867;SDS011;33517;49.866;8.320;2023-02-11T01:48:56;15.10;;;3.72;;
12867;SDS011;33517;49.866;8.320;2023-02-11T01:51:52;6.47;;;3.58;;
12867;SDS011;33517;49.866;8.320;2023-02-11T01:54:50;3.50;;;2.42;;
12867;SDS011;33517;49.866;8.320;2023-02-11T01:58:01;2.53;;;2.08;;
12867;SDS011;33517;49.866;8.320;2023-02-11T02:00:55;3.55;;;2.30;;
12867;SDS011;33517;49.866;8.320;2023-02-11T02:03:48;2.70;;;1.55;;
12867;SDS011;33517;49.866;8.320;2023-02-11T02:06:45;3.70;;;2.53;;
12867;SDS011;33517;49.866;8.320;2023-02-11T02:09:43;2.15;;;1.98;;
12867;SDS011;33517;49.866;8.320;2023-02-11T02:12:41;3.67;;;2.65;;
12867;SDS011;33517;49.866;8.320;2023-02-11T02:15:33;1.95;;;1.52;;
12867;SDS011;33517;49.866;8.320;2023-02-11T02:18:32;2.70;;;1.92;;
12867;SDS011;33517;49.866;8.320;2023-02-11T02:25:04;3.17;;;2.47;;
12867;SDS011;33517;49.866;8.320;2023-02-11T02:28:17;4.38;;;3.13;;
12867;SDS011;33517;49.866;8.320;2023-02-11T02:31:32;3.33;;;2.10;;
12867;SDS011;33517;49.866;8.320;2023-02-11T02:34:39;6.63;;;2.20;;
12867;SDS011;33517;49.866;8.320;2023-02-11T02:37:35;5.05;;;3.22;;
12867;SDS011;33517;49.866;8.320;2023-02-11T02:40:33;2.50;;;2.33;;
12867;SDS011;33517;49.866;8.320;2023-02-11T02:43:30;2.53;;;2.33;;
12867;SDS011;33517;49.866;8.320;2023-02-11T02:46:25;3.30;;;2.35;;
12867;SDS011;33517;49.866;8.320;2023-02-11T02:49:18;1.63;;;1.50;;
12867;SDS011;33517;49.866;8.320;2023-02-11T02:52:17;4.20;;;2.60;;
12867;SDS011;33517;49.866;8.320;2023-02-11T02:55:33;5.28;;;2.85;;
12867;SDS011;33517;49.866;8.320;2023-02-11T03:02:08;2.30;;;2.17;;
12867;SDS011;33517;49.866;8.320;2023-02-11T03:05:07;3.70;;;2.63;;
12867;SDS011;33517;49.866;8.320;2023-02-11T03:08:08;8.95;;;2.92;;
12867;SDS011;33517;49.866;8.320;2023-02-11T03:11:05;12.13;;;2.05;;
12867;SDS011;33517;49.866;8.320;2023-02-11T03:14:00;2.03;;;1.92;;
12867;SDS011;33517;49.866;8.320;2023-02-11T03:16:54;3.47;;;2.70;;
12867;SDS011;33517;49.866;8.320;2023-02-11T03:19:49;3.60;;;2.78;;
12867;SDS011;33517;49.866;8.320;2023-02-11T03:22:45;4.68;;;2.58;;
12867;SDS011;33517;49.866;8.320;2023-02-11T03:25:43;3.03;;;2.25;;
12867;SDS011;33517;49.866;8.320;2023-02-11T03:28:40;4.05;;;2.13;;
12867;SDS011;33517;49.866;8.320;2023-02-11T03:31:38;2.78;;;2.25;;
12867;SDS011;33517;49.866;8.320;2023-02-11T03:34:38;1.67;;;1.45;;
12867;SDS011;33517;49.866;8.320;2023-02-11T03:37:37;6.90;;;2.85;;
12867;SDS011;33517;49.866;8.320;2023-02-11T03:40:31;2.65;;;1.75;;
12867;SDS011;33517;49.866;8.320;2023-02-11T03:43:29;6.28;;;2.95;;
12867;SDS011;33517;49.866;8.320;2023-02-11T03:46:26;3.58;;;2.70;;
12867;SDS011;33517;49.866;8.320;2023-02-11T03:49:21;3.53;;;2.05;;
12867;SDS011;33517;49.866;8.320;2023-02-11T03:52:17;2.80;;;2.08;;
12867;SDS011;33517;49.866;8.320;2023-02-11T03:55:14;2.28;;;2.17;;
12867;SDS011;33517;49.866;8.320;2023-02-11T03:58:08;3.70;;;2.28;;
12867;SDS011;33517;49.866;8.320;2023-02-11T04:01:02;4.43;;;2.63;;
12867;SDS011;33517;49.866;8.320;2023-02-11T04:03:58;4.05;;;3.65;;
12867;SDS011;33517;49.866;8.320;2023-02-11T04:06:49;3.47;;;2.45;;
12867;SDS011;33517;49.866;8.320;2023-02-11T04:09:41;3.95;;;1.70;;
12867;SDS011;33517;49.866;8.320;2023-02-11T04:12:33;4.18;;;3.00;;
12867;SDS011;33517;49.866;8.320;2023-02-11T04:15:25;2.35;;;2.15;;
12867;SDS011;33517;49.866;8.320;2023-02-11T04:18:19;2.13;;;2.03;;
12867;SDS011;33517;49.866;8.320;2023-02-11T04:21:10;2.53;;;2.17;;
12867;SDS011;33517;49.866;8.320;2023-02-11T04:24:02;1.73;;;1.63;;
12867;SDS011;33517;49.866;8.320;2023-02-11T04:26:55;5.43;;;3.53;;
12867;SDS011;33517;49.866;8.320;2023-02-11T04:29:46;2.28;;;1.95;;
12867;SDS011;33517;49.866;8.320;2023-02-11T04:32:38;5.20;;;3.47;;
12867;SDS011;33517;49.866;8.320;2023-02-11T04:35:32;2.13;;;1.88;;
12867;SDS011;33517;49.866;8.320;2023-02-11T04:38:23;2.58;;;2.22;;
12867;SDS011;33517;49.866;8.320;2023-02-11T04:41:16;1.77;;;1.63;;
12867;SDS011;33517;49.866;8.320;2023-02-11T04:44:08;4.18;;;2.85;;
12867;SDS011;33517;49.866;8.320;2023-02-11T04:47:00;2.08;;;1.95;;
12867;SDS011;33517;49.866;8.320;2023-02-11T04:49:52;2.80;;;2.40;;
12867;SDS011;33517;49.866;8.320;2023-02-11T04:52:45;1.67;;;1.58;;
12867;SDS011;33517;49.866;8.320;2023-02-11T04:55:37;3.17;;;2.88;;
12867;SDS011;33517;49.866;8.320;2023-02-11T04:58:28;2.50;;;1.83;;
12867;SDS011;33517;49.866;8.320;2023-02-11T05:01:20;2.15;;;1.55;;
12867;SDS011;33517;49.866;8.320;2023-02-11T05:04:12;2.15;;;1.98;;
12867;SDS011;33517;49.866;8.320;2023-02-11T05:07:04;3.55;;;2.60;;
12867;SDS011;33517;49.866;8.320;2023-02-11T05:09:57;4.47;;;2.17;;
12867;SDS011;33517;49.866;8.320;2023-02-11T05:12:49;3.58;;;2.38;;
12867;SDS011;33517;49.866;8.320;2023-02-11T05:15:41;2.97;;;2.65;;
12867;SDS011;33517;49.866;8.320;2023-02-11T05:18:33;3.08;;;2.17;;
12867;SDS011;33517;49.866;8.320;2023-02-11T05:21:24;2.55;;;2.35;;
12867;SDS011;33517;49.866;8.320;2023-02-11T05:24:16;2.33;;;2.13;;
12867;SDS011;33517;49.866;8.320;2023-02-11T05:27:09;2.17;;;1.92;;
12867;SDS011;33517;49.866;8.320;2023-02-11T05:30:01;5.18;;;3.15;;
12867;SDS011;33517;49.866;8.320;2023-02-11T05:32:54;3.53;;;2.47;;
12867;SDS011;33517;49.866;8.320;2023-02-11T05:35:46;1.95;;;1.52;;
12867;SDS011;33517;49.866;8.320;2023-02-11T05:38:38;2.25;;;2.05;;
12867;SDS011;33517;49.866;8.320;2023-02-11T05:41:31;3.97;;;2.00;;
12867;SDS011;33517;49.866;8.320;2023-02-11T05:44:25;3.40;;;2.03;;
12867;SDS011;33517;49.866;8.320;2023-02-11T05:47:17;2.00;;;1.85;;
12867;SDS011;33517;49.866;8.320;2023-02-11T05:50:08;3.42;;;3.13;;
12867;SDS011;33517;49.866;8.320;2023-02-11T05:53:00;3.88;;;2.13;;
12867;SDS011;33517;49.866;8.320;2023-02-11T05:55:52;2.60;;;1.85;;
12867;SDS011;33517;49.866;8.320;2023-02-11T05:58:44;4.10;;;3.67;;
12867;SDS011;33517;49.866;8.320;2023-02-11T06:01:37;4.00;;;2.90;;
12867;SDS011;33517;49.866;8.320;2023-02-11T06:04:29;3.80;;;2.97;;
12867;SDS011;33517;49.866;8.320;2023-02-11T06:07:21;0.90;;;0.90;;
12867;SDS011;33517;49.866;8.320;2023-02-11T06:10:13;1.70;;;1.45;;
12867;SDS011;33517;49.866;8.320;2023-02-11T06:13:05;2.70;;;2.05;;
12867;SDS011;33517;49.866;8.320;2023-02-11T06:15:57;5.50;;;2.33;;
12867;SDS011;33517;49.866;8.320;2023-02-11T06:18:51;3.42;;;2.42;;
12867;SDS011;33517;49.866;8.320;2023-02-11T06:21:43;1.73;;;1.63;;
12867;SDS011;33517;49.866;8.320;2023-02-11T06:24:34;1.65;;;1.30;;
12867;SDS011;33517;49.866;8.320;2023-02-11T06:27:27;4.28;;;2.88;;
12867;SDS011;33517;49.866;8.320;2023-02-11T06:30:19;2.72;;;2.25;;
12867;SDS011;33517;49.866;8.320;2023-02-11T06:33:11;4.30;;;2.15;;
12867;SDS011;33517;49.866;8.320;2023-02-11T06:36:08;3.65;;;1.63;;
12867;SDS011;33517;49.866;8.320;2023-02-11T06:39:04;6.03;;;2.08;;
12867;SDS011;33517;49.866;8.320;2023-02-11T06:41:56;2.22;;;1.73;;
12867;SDS011;33517;49.866;8.320;2023-02-11T06:44:48;3.53;;;1.75;;
12867;SDS011;33517;49.866;8.320;2023-02-11T06:47:39;2.63;;;2.10;;
12867;SDS011;33517;49.866;8.320;2023-02-11T06:50:31;7.60;;;2.65;;
12867;SDS011;33517;49.866;8.320;2023-02-11T06:53:25;3.30;;;2.55;;
12867;SDS011;33517;49.866;8.320;2023-02-11T06:56:17;6.78;;;2.30;;
12867;SDS011;33517;49.866;8.320;2023-02-11T06:59:11;0.80;;;0.80;;
12867;SDS011;33517;49.866;8.320;2023-02-11T07:02:07;9.35;;;2.30;;
12867;SDS011;33517;49.866;8.320;2023-02-11T07:04:59;1.90;;;1.58;;
12867;SDS011;33517;49.866;8.320;2023-02-11T07:07:51;8.20;;;3.03;;
12867;SDS011;33517;49.866;8.320;2023-02-11T07:10:44;2.65;;;2.45;;
12867;SDS011;33517;49.866;8.320;2023-02-11T07:13:36;2.05;;;1.80;;
12867;SDS011;33517;49.866;8.320;2023-02-11T07:16:28;5.97;;;2.10;;
12867;SDS011;33517;49.866;8.320;2023-02-11T07:19:20;1.90;;;1.80;;
12867;SDS011;33517;49.866;8.320;2023-02-11T07:22:12;2.17;;;1.73;;
12867;SDS011;33517;49.866;8.320;2023-02-11T07:25:04;2.33;;;2.13;;
12867;SDS011;33517;49.866;8.320;2023-02-11T07:27:58;2.72;;;2.53;;
12867;SDS011;33517;49.866;8.320;2023-02-11T07:30:49;5.30;;;2.78;;
12867;SDS011;33517;49.866;8.320;2023-02-11T07:33:42;2.83;;;2.42;;
12867;SDS011;33517;49.866;8.320;2023-02-11T07:36:35;1.70;;;1.60;;
12867;SDS011;33517;49.866;8.320;2023-02-11T07:39:27;3.30;;;2.22;;
12867;SDS011;33517;49.866;8.320;2023-02-11T07:42:19;4.68;;;2.47;;
12867;SDS011;33517;49.866;8.320;2023-02-11T07:45:12;5.10;;;3.65;;
12867;SDS011;33517;49.866;8.320;2023-02-11T07:48:04;2.95;;;2.35;;
12867;SDS011;33517;49.866;8.320;2023-02-11T07:51:03;2.17;;;1.85;;
12867;SDS011;33517;49.866;8.320;2023-02-11T07:53:56;2.55;;;1.90;;
12867;SDS011;33517;49.866;8.320;2023-02-11T07:56:49;8.48;;;4.13;;
12867;SDS011;33517;49.866;8.320;2023-02-11T07:59:41;1.65;;;1.55;;
12867;SDS011;33517;49.866;8.320;2023-02-11T08:02:34;5.13;;;2.15;;
12867;SDS011;33517;49.866;8.320;2023-02-11T08:05:26;5.18;;;3.03;;
12867;SDS011;33517;49.866;8.320;2023-02-11T08:08:18;4.43;;;2.60;;
12867;SDS011;33517;49.866;8.320;2023-02-11T08:11:11;5.03;;;2.60;;
12867;SDS011;33517;49.866;8.320;2023-02-11T08:14:04;5.30;;;2.35;;
12867;SDS011;33517;49.866;8.320;2023-02-11T08:16:56;3.17;;;2.88;;
12867;SDS011;33517;49.866;8.320;2023-02-11T08:19:49;3.78;;;2.40;;
12867;SDS011;33517;49.866;8.320;2023-02-11T08:22:41;7.40;;;2.70;;
12867;SDS011;33517;49.866;8.320;2023-02-11T08:25:33;2.58;;;2.38;;
12867;SDS011;33517;49.866;8.320;2023-02-11T08:28:25;5.57;;;3.00;;
12867;SDS011;33517;49.866;8.320;2023-02-11T08:31:17;7.25;;;2.80;;
12867;SDS011;33517;49.866;8.320;2023-02-11T08:34:11;18.98;;;3.72;;
12867;SDS011;33517;49.866;8.320;2023-02-11T08:37:05;4.95;;;2.90;;
12867;SDS011;33517;49.866;8.320;2023-02-11T08:39:58;6.55;;;3.70;;
12867;SDS011;33517;49.866;8.320;2023-02-11T08:42:50;6.50;;;3.40;;
12867;SDS011;33517;49.866;8.320;2023-02-11T08:45:42;6.05;;;3.35;;
12867;SDS011;33517;49.866;8.320;2023-02-11T08:48:34;8.98;;;3.95;;
12867;SDS011;33517;49.866;8.320;2023-02-11T08:51:27;9.45;;;4.25;;
12867;SDS011;33517;49.866;8.320;2023-02-11T08:54:22;4.20;;;3.42;;
12867;SDS011;33517;49.866;8.320;2023-02-11T08:57:14;6.40;;;4.70;;
12867;SDS011;33517;49.866;8.320;2023-02-11T09:00:06;8.63;;;3.78;;
12867;SDS011;33517;49.866;8.320;2023-02-11T09:03:00;5.93;;;3.33;;
12867;SDS011;33517;49.866;8.320;2023-02-11T09:05:52;6.28;;;4.13;;
12867;SDS011;33517;49.866;8.320;2023-02-11T09:08:45;11.60;;;5.30;;
12867;SDS011;33517;49.866;8.320;2023-02-11T09:11:41;7.43;;;4.43;;
12867;SDS011;33517;49.866;8.320;2023-02-11T09:14:34;6.57;;;4.38;;
12867;SDS011;33517;49.866;8.320;2023-02-11T09:17:27;9.30;;;4.93;;
12867;SDS011;33517;49.866;8.320;2023-02-11T09:20:19;8.48;;;5.03;;
12867;SDS011;33517;49.866;8.320;2023-02-11T09:23:11;9.15;;;5.57;;
12867;SDS011;33517;49.866;8.320;2023-02-11T09:26:04;6.57;;;3.95;;
12867;SDS011;33517;49.866;8.320;2023-02-11T09:28:58;14.43;;;5.03;;
12867;SDS011;33517;49.866;8.320;2023-02-11T09:31:50;9.52;;;4.78;;
12867;SDS011;33517;49.866;8.320;2023-02-11T09:34:42;10.63;;;5.50;;
12867;SDS011;33517;49.866;8.320;2023-02-11T09:37:34;8.77;;;5.60;;
12867;SDS011;33517;49.866;8.320;2023-02-11T09:40:26;10.93;;;5.30;;
12867;SDS011;33517;49.866;8.320;2023-02-11T09:43:19;4.90;;;3.38;;
12867;SDS011;33517;49.866;8.320;2023-02-11T09:46:14;16.67;;;5.13;;
12867;SDS011;33517;49.866;8.320;2023-02-11T09:49:09;12.55;;;5.95;;
12867;SDS011;33517;49.866;8.320;2023-02-11T09:52:12;4.82;;;4.13;;
12867;SDS011;33517;49.866;8.320;2023-02-11T09:55:14;8.20;;;4.13;;
12867;SDS011;33517;49.866;8.320;2023-02-11T09:58:11;14.07;;;6.13;;
12867;SDS011;33517;49.866;8.320;2023-02-11T10:01:06;11.60;;;3.95;;
12867;SDS011;33517;49.866;8.320;2023-02-11T10:04:08;7.22;;;4.68;;
12867;SDS011;33517;49.866;8.320;2023-02-11T10:07:12;9.77;;;5.43;;
12867;SDS011;33517;49.866;8.320;2023-02-11T10:10:12;10.13;;;5.28;;
12867;SDS011;33517;49.866;8.320;2023-02-11T10:13:31;5.07;;;4.13;;
12867;SDS011;33517;49.866;8.320;2023-02-11T10:16:37;6.75;;;4.00;;
12867;SDS011;33517;49.866;8.320;2023-02-11T10:19:46;7.63;;;3.22;;
12867;SDS011;33517;49.866;8.320;2023-02-11T10:22:48;10.10;;;4.63;;
12867;SDS011;33517;49.866;8.320;2023-02-11T10:25:43;10.65;;;4.85;;
12867;SDS011;33517;49.866;8.320;2023-02-11T10:28:37;11.10;;;4.35;;
12867;SDS011;33517;49.866;8.320;2023-02-11T10:31:33;9.55;;;3.95;;
12867;SDS011;33517;49.866;8.320;2023-02-11T10:34:29;7.10;;;4.47;;
12867;SDS011;33517;49.866;8.320;2023-02-11T10:37:22;3.75;;;3.17;;
12867;SDS011;33517;49.866;8.320;2023-02-11T10:40:14;4.18;;;2.80;;
12867;SDS011;33517;49.866;8.320;2023-02-11T10:43:09;3.10;;;2.83;;
12867;SDS011;33517;49.866;8.320;2023-02-11T10:46:04;8.10;;;3.35;;
12867;SDS011;33517;49.866;8.320;2023-02-11T10:48:56;7.45;;;3.33;;
12867;SDS011;33517;49.866;8.320;2023-02-11T10:51:48;5.78;;;3.55;;
12867;SDS011;33517;49.866;8.320;2023-02-11T10:54:41;4.35;;;3.08;;
12867;SDS011;33517;49.866;8.320;2023-02-11T10:57:51;3.58;;;3.10;;
12867;SDS011;33517;49.866;8.320;2023-02-11T11:00:48;9.98;;;3.40;;
12867;SDS011;33517;49.866;8.320;2023-02-11T11:03:44;5.47;;;3.50;;
12867;SDS011;33517;49.866;8.320;2023-02-11T11:06:38;5.15;;;3.40;;
12867;SDS011;33517;49.866;8.320;2023-02-11T11:09:37;8.20;;;4.45;;
12867;SDS011;33517;49.866;8.320;2023-02-11T11:12:44;16.90;;;3.78;;
12867;SDS011;33517;49.866;8.320;2023-02-11T11:15:38;5.75;;;2.75;;
12867;SDS011;33517;49.866;8.320;2023-02-11T11:18:30;7.28;;;4.10;;
12867;SDS011;33517;49.866;8.320;2023-02-11T11:21:22;6.25;;;3.83;;
12867;SDS011;33517;49.866;8.320;2023-02-11T11:24:16;4.72;;;3.20;;
12867;SDS011;33517;49.866;8.320;2023-02-11T11:27:16;4.32;;;2.72;;
12867;SDS011;33517;49.866;8.320;2023-02-11T11:30:13;3.83;;;3.35;;
12867;SDS011;33517;49.866;8.320;2023-02-11T11:33:12;4.60;;;3.10;;
12867;SDS011;33517;49.866;8.320;2023-02-11T11:36:10;8.23;;;3.45;;
12867;SDS011;33517;49.866;8.320;2023-02-11T11:39:14;4.50;;;3.05;;
12867;SDS011;33517;49.866;8.320;2023-02-11T11:42:25;7.03;;;3.60;;
12867;SDS011;33517;49.866;8.320;2023-02-11T11:45:21;10.07;;;4.03;;
12867;SDS011;33517;49.866;8.320;2023-02-11T11:48:17;2.20;;;2.00;;
12867;SDS011;33517;49.866;8.320;2023-02-11T11:51:14;5.95;;;3.50;;
12867;SDS011;33517;49.866;8.320;2023-02-11T11:54:07;4.75;;;2.95;;
12867;SDS011;33517;49.866;8.320;2023-02-11T11:57:03;6.07;;;3.42;;
12867;SDS011;33517;49.866;8.320;2023-02-11T12:06:40;3.90;;;2.22;;
12867;SDS011;33517;49.866;8.320;2023-02-11T12:09:44;3.72;;;2.88;;
12867;SDS011;33517;49.866;8.320;2023-02-11T12:12:56;3.25;;;2.72;;
12867;SDS011;33517;49.866;8.320;2023-02-11T12:15:58;3.70;;;3.15;;
12867;SDS011;33517;49.866;8.320;2023-02-11T12:19:10;2.50;;;2.30;;
12867;SDS011;33517;49.866;8.320;2023-02-11T12:22:17;4.65;;;2.97;;
12867;SDS011;33517;49.866;8.320;2023-02-11T12:25:26;6.50;;;3.63;;
12867;SDS011;33517;49.866;8.320;2023-02-11T12:28:24;8.80;;;4.13;;
12867;SDS011;33517;49.866;8.320;2023-02-11T12:31:28;4.28;;;3.50;;
12867;SDS011;33517;49.866;8.320;2023-02-11T12:38:05;4.82;;;2.53;;
12867;SDS011;33517;49.866;8.320;2023-02-11T12:41:30;2.35;;;2.15;;
12867;SDS011;33517;49.866;8.320;2023-02-11T12:44:52;5.50;;;3.03;;
12867;SDS011;33517;49.866;8.320;2023-02-11T12:48:02;5.30;;;2.90;;
12867;SDS011;33517;49.866;8.320;2023-02-11T12:51:04;6.50;;;3.33;;
12867;SDS011;33517;49.866;8.320;2023-02-11T12:54:12;4.45;;;3.28;;
12867;SDS011;33517;49.866;8.320;2023-02-11T12:57:10;8.00;;;2.45;;
12867;SDS011;33517;49.866;8.320;2023-02-11T13:00:12;8.65;;;3.25;;
12867;SDS011;33517;49.866;8.320;2023-02-11T13:03:11;6.68;;;3.40;;
12867;SDS011;33517;49.866;8.320;2023-02-11T13:06:10;3.95;;;2.45;;
12867;SDS011;33517;49.866;8.320;2023-02-11T13:09:05;5.95;;;3.58;;
12867;SDS011;33517;49.866;8.320;2023-02-11T13:12:03;3.88;;;2.63;;
12867;SDS011;33517;49.866;8.320;2023-02-11T13:15:18;2.22;;;2.03;;
12867;SDS011;33517;49.866;8.320;2023-02-11T13:18:15;3.80;;;2.72;;
12867;SDS011;33517;49.866;8.320;2023-02-11T13:21:18;3.10;;;2.45;;
12867;SDS011;33517;49.866;8.320;2023-02-11T13:24:22;2.35;;;2.15;;
12867;SDS011;33517;49.866;8.320;2023-02-11T13:27:22;4.05;;;1.88;;
12867;SDS011;33517;49.866;8.320;2023-02-11T13:30:23;4.18;;;3.10;;
12867;SDS011;33517;49.866;8.320;2023-02-11T13:33:29;9.38;;;3.35;;
12867;SDS011;33517;49.866;8.320;2023-02-11T13:36:23;2.97;;;2.15;;
12867;SDS011;33517;49.866;8.320;2023-02-11T13:39:22;2.15;;;1.42;;
12867;SDS011;33517;49.866;8.320;2023-02-11T13:42:14;2.85;;;1.42;;
12867;SDS011;33517;49.866;8.320;2023-02-11T13:45:15;4.45;;;2.55;;
12867;SDS011;33517;49.866;8.320;2023-02-11T13:48:13;4.90;;;3.00;;
12867;SDS011;33517;49.866;8.320;2023-02-11T13:51:10;1.60;;;1.50;;
12867;SDS011;33517;49.866;8.320;2023-02-11T13:54:05;5.68;;;2.13;;
12867;SDS011;33517;49.866;8.320;2023-02-11T14:03:40;6.45;;;2.67;;
12867;SDS011;33517;49.866;8.320;2023-02-11T14:07:29;3.83;;;1.35;;
12867;SDS011;33517;49.866;8.320;2023-02-11T14:10:49;1.77;;;1.63;;
12867;SDS011;33517;49.866;8.320;2023-02-11T14:14:01;3.20;;;1.77;;
12867;SDS011;33517;49.866;8.320;2023-02-11T14:20:34;3.95;;;1.50;;
12867;SDS011;33517;49.866;8.320;2023-02-11T14:23:31;2.40;;;1.42;;
12867;SDS011;33517;49.866;8.320;2023-02-11T14:26:25;4.63;;;2.45;;
12867;SDS011;33517;49.866;8.320;2023-02-11T14:29:25;2.33;;;1.85;;
12867;SDS011;33517;49.866;8.320;2023-02-11T14:32:31;5.07;;;2.55;;
12867;SDS011;33517;49.866;8.320;2023-02-11T14:35:35;3.42;;;2.15;;
12867;SDS011;33517;49.866;8.320;2023-02-11T14:38:39;3.38;;;1.90;;
12867;SDS011;33517;49.866;8.320;2023-02-11T14:41:40;1.83;;;1.50;;
12867;SDS011;33517;49.866;8.320;2023-02-11T14:44:34;1.23;;;1.17;;
12867;SDS011;33517;49.866;8.320;2023-02-11T14:47:27;2.17;;;1.77;;
12867;SDS011;33517;49.866;8.320;2023-02-11T14:50:25;3.17;;;2.22;;
12867;SDS011;33517;49.866;8.320;2023-02-11T14:53:19;2.17;;;1.98;;
12867;SDS011;33517;49.866;8.320;2023-02-11T14:56:19;4.97;;;1.67;;
12867;SDS011;33517;49.866;8.320;2023-02-11T14:59:15;4.00;;;2.40;;
12867;SDS011;33517;49.866;8.320;2023-02-11T15:02:19;2.40;;;1.90;;
12867;SDS011;33517;49.866;8.320;2023-02-11T15:05:17;2.88;;;1.95;;
12867;SDS011;33517;49.866;8.320;2023-02-11T15:08:12;7.57;;;1.65;;
12867;SDS011;33517;49.866;8.320;2023-02-11T15:11:07;5.13;;;2.47;;
12867;SDS011;33517;49.866;8.320;2023-02-11T15:14:06;1.83;;;1.73;;
12867;SDS011;33517;49.866;8.320;2023-02-11T15:17:00;4.22;;;2.00;;
12867;SDS011;33517;49.866;8.320;2023-02-11T15:19:55;3.17;;;1.45;;
12867;SDS011;33517;49.866;8.320;2023-02-11T15:22:53;4.35;;;2.05;;
12867;SDS011;33517;49.866;8.320;2023-02-11T15:25:47;6.13;;;2.67;;
12867;SDS011;33517;49.866;8.320;2023-02-11T15:28:44;2.33;;;2.13;;
12867;SDS011;33517;49.866;8.320;2023-02-11T15:31:43;6.50;;;2.67;;
12867;SDS011;33517;49.866;8.320;2023-02-11T15:34:35;4.80;;;1.80;;
12867;SDS011;33517;49.866;8.320;2023-02-11T15:37:28;7.63;;;3.03;;
12867;SDS011;33517;49.866;8.320;2023-02-11T15:40:21;1.92;;;1.63;;
12867;SDS011;33517;49.866;8.320;2023-02-11T15:43:14;5.60;;;2.95;;
12867;SDS011;33517;49.866;8.320;2023-02-11T15:46:05;4.03;;;2.42;;
12867;SDS011;33517;49.866;8.320;2023-02-11T15:49:01;2.65;;;1.95;;
12867;SDS011;33517;49.866;8.320;2023-02-11T15:51:53;3.97;;;2.92;;
12867;SDS011;33517;49.866;8.320;2023-02-11T15:54:47;3.17;;;2.33;;
12867;SDS011;33517;49.866;8.320;2023-02-11T15:57:41;3.97;;;2.58;;
12867;SDS011;33517;49.866;8.320;2023-02-11T16:00:44;5.30;;;2.65;;
12867;SDS011;33517;49.866;8.320;2023-02-11T16:03:39;2.42;;;1.92;;
12867;SDS011;33517;49.866;8.320;2023-02-11T16:06:37;2.35;;;2.17;;
12867;SDS011;33517;49.866;8.320;2023-02-11T16:09:31;7.13;;;3.33;;
12867;SDS011;33517;49.866;8.320;2023-02-11T16:12:25;3.63;;;2.58;;
12867;SDS011;33517;49.866;8.320;2023-02-11T16:18:36;9.75;;;4.63;;
12867;SDS011;33517;49.866;8.320;2023-02-11T16:21:30;4.47;;;2.88;;
12867;SDS011;33517;49.866;8.320;2023-02-11T16:24:26;2.95;;;2.70;;
12867;SDS011;33517;49.866;8.320;2023-02-11T16:27:22;3.65;;;2.67;;
12867;SDS011;33517;49.866;8.320;2023-02-11T16:30:22;3.00;;;1.75;;
12867;SDS011;33517;49.866;8.320;2023-02-11T16:33:18;3.70;;;3.10;;
12867;SDS011;33517;49.866;8.320;2023-02-11T16:36:11;2.33;;;2.13;;
12867;SDS011;33517;49.866;8.320;2023-02-11T16:39:06;4.30;;;2.80;;
12867;SDS011;33517;49.866;8.320;2023-02-11T16:42:00;2.15;;;1.95;;
12867;SDS011;33517;49.866;8.320;2023-02-11T16:44:52;5.10;;;3.03;;
12867;SDS011;33517;49.866;8.320;2023-02-11T16:47:44;1.92;;;1.75;;
12867;SDS011;33517;49.866;8.320;2023-02-11T16:50:36;4.20;;;2.53;;
12867;SDS011;33517;49.866;8.320;2023-02-11T16:53:27;3.95;;;2.55;;
12867;SDS011;33517;49.866;8.320;2023-02-11T16:56:19;5.13;;;2.80;;
12867;SDS011;33517;49.866;8.320;2023-02-11T16:59:12;4.57;;;2.33;;
12867;SDS011;33517;49.866;8.320;2023-02-11T17:02:07;4.07;;;2.53;;
12867;SDS011;33517;49.866;8.320;2023-02-11T17:05:05;4.95;;;1.95;;
12867;SDS011;33517;49.866;8.320;2023-02-11T17:07:58;5.50;;;2.50;;
12867;SDS011;33517;49.866;8.320;2023-02-11T17:10:51;5.53;;;2.88;;
12867;SDS011;33517;49.866;8.320;2023-02-11T17:13:43;2.42;;;2.05;;
12867;SDS011;33517;49.866;8.320;2023-02-11T17:16:36;1.90;;;1.80;;
12867;SDS011;33517;49.866;8.320;2023-02-11T17:19:28;3.63;;;2.40;;
12867;SDS011;33517;49.866;8.320;2023-02-11T17:22:20;2.13;;;1.95;;
12867;SDS011;33517;49.866;8.320;2023-02-11T17:25:12;3.72;;;1.73;;
12867;SDS011;33517;49.866;8.320;2023-02-11T17:28:04;2.30;;;1.45;;
12867;SDS011;33517;49.866;8.320;2023-02-11T17:30:57;2.97;;;2.20;;
12867;SDS011;33517;49.866;8.320;2023-02-11T17:33:50;7.35;;;3.05;;
12867;SDS011;33517;49.866;8.320;2023-02-11T17:36:43;4.28;;;3.47;;
12867;SDS011;33517;49.866;8.320;2023-02-11T17:39:35;4.40;;;2.40;;
12867;SDS011;33517;49.866;8.320;2023-02-11T17:42:27;7.43;;;3.80;;
12867;SDS011;33517;49.866;8.320;2023-02-11T17:45:20;3.50;;;1.88;;
12867;SDS011;33517;49.866;8.320;2023-02-11T17:48:12;2.80;;;2.45;;
12867;SDS011;33517;49.866;8.320;2023-02-11T17:51:15;2.17;;;1.73;;
12867;SDS011;33517;49.866;8.320;2023-02-11T17:54:12;5.43;;;2.72;;
12867;SDS011;33517;49.866;8.320;2023-02-11T17:57:06;3.72;;;2.30;;
12867;SDS011;33517;49.866;8.320;2023-02-11T17:59:58;1.70;;;1.55;;
12867;SDS011;33517;49.866;8.320;2023-02-11T18:02:50;7.53;;;2.08;;
12867;SDS011;33517;49.866;8.320;2023-02-11T18:05:41;3.85;;;2.85;;
12867;SDS011;33517;49.866;8.320;2023-02-11T18:08:35;1.75;;;1.60;;
12867;SDS011;33517;49.866;8.320;2023-02-11T18:11:27;3.42;;;1.50;;
12867;SDS011;33517;49.866;8.320;2023-02-11T18:14:20;2.47;;;2.28;;